ADDS METAR Data INFO
IDs: Format: Raw Decoded Include TAF

Data at: 0257 UTC 21 Oct 2017

KGCN 210254Z AUTO 24009KT 10SM CLR 11/02 A2993 RMK AO2 SLP076 T01110017 51025
KGCN 210154Z 24008G17KT 10SM CLR 12/01 A2992 RMK AO2 SLP093 T01220006
KGCN 210054Z 24016G23KT 10SM CLR 14/M01 A2988 RMK AO2 PK WND 23029/0031 SLP073 T01391011
KGCN 202354Z 25017G32KT 10SM CLR 17/M03 A2984 RMK AO2 PK WND 24034/2328 SLP053 60000 T01671028 10200 20167 56003
KGCN 202254Z 24019G35KT 10SM CLR 19/M05 A2985 RMK AO2 PK WND 24037/2208 SLP054 T01891050
KGCN 202154Z 25019G34KT 10SM CLR 20/M06 A2984 RMK AO2 PK WND 22035/2143 SLP038 T02001056
KGCN 202054Z 21026G32KT 10SM CLR 20/M03 A2985 RMK AO2 PK WND 22038/1955 SLP048 60000 T02001028 56032
KGCN 201954Z 22026G37KT 10SM CLR 19/M03 A2987 RMK AO2 PK WND 23037/1954 RAE49 SLP054 P0000 T01941028 $
KGCN 201854Z 23020G33KT 10SM -RA CLR 19/M03 A2993 RMK AO2 PK WND 21033/1851 SLP073 P0000 T01891028 $
KGCN 201754Z 22025G33KT 10SM -RA CLR 17/M02 A2997 RMK AO2 PK WND 21033/1753 RAB1657 SLP089 P0000 60000 T01721017 10172 21006 50001 $
KGCN 201654Z 21021G30KT 10SM CLR 16/M02 A2998 RMK AO2 PK WND 23030/1647 RAB14E27 SLP092 P0000 T01611017 $
KGCN 201554Z 22017G26KT 10SM CLR 14/01 A2997 RMK AO2 PK WND 22026/1547 SLP089 T01390011 $
KGCN 201454Z 20006KT 10SM CLR 10/01 A2997 RMK AO2 SLP087 T01000006 58007 $
KGCN 201354Z 00000KT 10SM CLR 00/M03 A2997 RMK AO2 SLP107 T00001028 $
KGCN 201254Z AUTO 05006KT 7SM FU CLR 01/M02 A3000 RMK AO2 SLP104 T00061022 $
KGCN 201154Z AUTO 05003KT 8SM FU CLR 01/M02 A2999 RMK AO2 SLP096 70001 T00061022 10039 21011 55008 $
KGCN 201054Z AUTO 05005KT 7SM FU CLR M01/M04 A2999 RMK AO2 SLP100 T10111044 $
KGCN 200954Z 00000KT 7SM FU CLR 03/M02 A3000 RMK AO2 SLP093 T00331017 $
KGCN 200854Z 00000KT 10SM FU CLR 01/M04 A3002 RMK AO2 SLP102 T00111039 58010 $
KGCN 200754Z 00000KT 10SM FU CLR 02/M04 A3004 RMK AO2 SLP107 T00171039 $
KGCN 200654Z 00000KT 10SM FU CLR 03/M03 A3005 RMK AO2 SLP108 T00281033 402220011 $
KGCN 200554Z 00000KT 10SM FU CLR 04/M03 A3006 RMK AO2 SLP115 60000 T00391028 10206 20033 50002 $
KGCN 200454Z 00000KT 10SM FU CLR 04/M03 A3007 RMK AO2 SLP129 T00441028 $
KGCN 200354Z 00000KT 10SM FU CLR 07/M02 A3006 RMK AO2 SLP132 T00721022 $
KGCN 200254Z 23004KT 9SM FU BKN090 11/M01 A3005 RMK AO2 SLP124 60000 T01111011 53007
KGCN 200154Z 00000KT 10SM FU OVC095 13/M01 A3004 RMK AO2 SLP128 T01281011
KGCN 200054Z 24005KT 10SM FU SCT095 18/M02 A3003 RMK AO2 RAE20 SLP113 P0000 T01831017
KGCN 192354Z 23008KT 10SM -RA FU BKN095 BKN120 20/M02 A3003 RMK AO2 SLP107 P0000 60000 T02001017 10222 20194 58009
KGCN 192254Z 21010KT 10SM -RA FU SCT120 20/M01 A3005 RMK AO2 SLP114 P0000 T02001011
KGCN 192154Z 19010G23KT 10SM -RA FU BKN110 21/M01 A3006 RMK AO2 SLP114 P0000 T02111011
KGCN 192054Z 22018G24KT 10SM -RA FU SCT110 22/M01 A3006 RMK AO2 PK WND 22026/2038 RAB52 SLP109 P0000 60000 T02171011 58023
KGCN 191954Z 23008G16KT 10SM FU BKN100 22/M01 A3009 RMK AO2 SLP119 T02171006
KGCN 191854Z 22010G15KT 10SM FU CLR 21/00 A3012 RMK AO2 SLP128 T02110000
KGCN 191754Z 21008G15KT 10SM FU FEW100 19/M01 A3014 RMK AO2 SLP139 60001 T01941011 10200 20011 58010
KGCN 191654Z 00000KT 10SM FU CLR 14/07 A3016 RMK AO2 SLP154 T01390072
KGCN 191554Z 00000KT 10SM FU FEW075 SCT090 09/08 A3017 RMK AO2 RAE12 SLP161 P0000 T00940078
KGCN 191458Z 08003KT 10SM VCTS RA FU FEW047 BKN065 OVC080 07/04 A3017 RMK AO2 LTG DSNT S P0000 T00720044